sensor_id;sensor_type;location;lat;lon;timestamp;P1;durP1;ratioP1;P2;durP2;ratioP2
65871;SDS011;52653;50.080;21.992;2022-09-12T00:02:58;7.50;;;3.80;;
65871;SDS011;52653;50.080;21.992;2022-09-12T00:05:50;7.40;;;4.10;;
65871;SDS011;52653;50.080;21.992;2022-09-12T00:08:22;8.20;;;3.50;;
65871;SDS011;52653;50.080;21.992;2022-09-12T00:11:14;6.70;;;3.60;;
65871;SDS011;52653;50.080;21.992;2022-09-12T00:14:05;7.10;;;3.30;;
65871;SDS011;52653;50.080;21.992;2022-09-12T00:16:59;7.40;;;3.40;;
65871;SDS011;52653;50.080;21.992;2022-09-12T00:19:52;7.90;;;3.30;;
65871;SDS011;52653;50.080;21.992;2022-09-12T00:22:44;5.60;;;3.50;;
65871;SDS011;52653;50.080;21.992;2022-09-12T00:25:41;6.00;;;3.30;;
65871;SDS011;52653;50.080;21.992;2022-09-12T00:28:35;7.70;;;3.50;;
65871;SDS011;52653;50.080;21.992;2022-09-12T00:31:22;8.60;;;3.70;;
65871;SDS011;52653;50.080;21.992;2022-09-12T00:34:16;6.10;;;3.20;;
65871;SDS011;52653;50.080;21.992;2022-09-12T00:36:59;8.10;;;3.50;;
65871;SDS011;52653;50.080;21.992;2022-09-12T00:39:51;6.60;;;3.60;;
65871;SDS011;52653;50.080;21.992;2022-09-12T00:42:43;6.00;;;3.50;;
65871;SDS011;52653;50.080;21.992;2022-09-12T00:45:35;6.30;;;3.40;;
65871;SDS011;52653;50.080;21.992;2022-09-12T00:48:28;6.30;;;3.30;;
65871;SDS011;52653;50.080;21.992;2022-09-12T00:51:24;7.00;;;3.40;;
65871;SDS011;52653;50.080;21.992;2022-09-12T00:54:11;6.20;;;3.10;;
65871;SDS011;52653;50.080;21.992;2022-09-12T00:57:08;7.60;;;3.10;;
65871;SDS011;52653;50.080;21.992;2022-09-12T01:00:05;6.00;;;3.00;;
65871;SDS011;52653;50.080;21.992;2022-09-12T01:02:53;6.90;;;3.00;;
65871;SDS011;52653;50.080;21.992;2022-09-12T01:05:51;6.30;;;3.10;;
65871;SDS011;52653;50.080;21.992;2022-09-12T01:08:50;6.90;;;3.30;;
65871;SDS011;52653;50.080;21.992;2022-09-12T01:11:44;6.70;;;3.10;;
65871;SDS011;52653;50.080;21.992;2022-09-12T01:14:37;7.10;;;2.70;;
65871;SDS011;52653;50.080;21.992;2022-09-12T01:17:30;6.20;;;2.80;;
65871;SDS011;52653;50.080;21.992;2022-09-12T01:20:42;9.00;;;3.10;;
65871;SDS011;52653;50.080;21.992;2022-09-12T01:30:17;5.50;;;3.30;;
65871;SDS011;52653;50.080;21.992;2022-09-12T01:33:19;5.80;;;3.30;;
65871;SDS011;52653;50.080;21.992;2022-09-12T01:36:18;5.40;;;3.30;;
65871;SDS011;52653;50.080;21.992;2022-09-12T01:39:15;6.20;;;3.40;;
65871;SDS011;52653;50.080;21.992;2022-09-12T01:42:17;8.10;;;3.40;;
65871;SDS011;52653;50.080;21.992;2022-09-12T01:45:17;5.80;;;2.80;;
65871;SDS011;52653;50.080;21.992;2022-09-12T01:48:16;6.00;;;2.70;;
65871;SDS011;52653;50.080;21.992;2022-09-12T01:51:14;6.80;;;3.40;;
65871;SDS011;52653;50.080;21.992;2022-09-12T01:54:05;11.30;;;3.30;;
65871;SDS011;52653;50.080;21.992;2022-09-12T01:59:47;5.70;;;2.90;;
65871;SDS011;52653;50.080;21.992;2022-09-12T02:02:26;7.10;;;3.20;;
65871;SDS011;52653;50.080;21.992;2022-09-12T02:05:12;5.70;;;2.90;;
65871;SDS011;52653;50.080;21.992;2022-09-12T02:08:10;7.10;;;2.90;;
65871;SDS011;52653;50.080;21.992;2022-09-12T02:11:07;6.00;;;2.90;;
65871;SDS011;52653;50.080;21.992;2022-09-12T02:14:02;6.50;;;3.10;;
65871;SDS011;52653;50.080;21.992;2022-09-12T02:16:57;6.60;;;2.80;;
65871;SDS011;52653;50.080;21.992;2022-09-12T02:19:56;4.20;;;2.50;;
65871;SDS011;52653;50.080;21.992;2022-09-12T02:22:52;5.20;;;2.80;;
65871;SDS011;52653;50.080;21.992;2022-09-12T02:25:47;5.50;;;2.60;;
65871;SDS011;52653;50.080;21.992;2022-09-12T02:28:43;6.30;;;3.40;;
65871;SDS011;52653;50.080;21.992;2022-09-12T02:31:36;6.60;;;2.60;;
65871;SDS011;52653;50.080;21.992;2022-09-12T02:34:38;5.20;;;2.40;;
65871;SDS011;52653;50.080;21.992;2022-09-12T02:37:41;7.20;;;2.90;;
65871;SDS011;52653;50.080;21.992;2022-09-12T02:40:43;7.80;;;2.90;;
65871;SDS011;52653;50.080;21.992;2022-09-12T02:43:35;5.80;;;3.10;;
65871;SDS011;52653;50.080;21.992;2022-09-12T02:46:22;5.90;;;2.60;;
65871;SDS011;52653;50.080;21.992;2022-09-12T02:49:18;19.30;;;3.10;;
65871;SDS011;52653;50.080;21.992;2022-09-12T02:52:11;6.50;;;2.40;;
65871;SDS011;52653;50.080;21.992;2022-09-12T02:54:52;6.90;;;3.10;;
65871;SDS011;52653;50.080;21.992;2022-09-12T02:57:47;5.70;;;2.70;;
65871;SDS011;52653;50.080;21.992;2022-09-12T03:00:40;6.30;;;2.80;;
65871;SDS011;52653;50.080;21.992;2022-09-12T03:03:44;6.10;;;2.50;;
65871;SDS011;52653;50.080;21.992;2022-09-12T03:06:49;5.00;;;2.70;;
65871;SDS011;52653;50.080;21.992;2022-09-12T03:09:41;5.60;;;2.70;;
65871;SDS011;52653;50.080;21.992;2022-09-12T03:12:42;5.60;;;2.80;;
65871;SDS011;52653;50.080;21.992;2022-09-12T03:15:42;6.90;;;2.60;;
65871;SDS011;52653;50.080;21.992;2022-09-12T03:18:45;5.80;;;2.90;;
65871;SDS011;52653;50.080;21.992;2022-09-12T03:21:46;5.60;;;3.10;;
65871;SDS011;52653;50.080;21.992;2022-09-12T03:24:50;9.10;;;3.70;;
65871;SDS011;52653;50.080;21.992;2022-09-12T03:27:52;5.50;;;2.90;;
65871;SDS011;52653;50.080;21.992;2022-09-12T03:30:54;6.00;;;3.00;;
65871;SDS011;52653;50.080;21.992;2022-09-12T03:33:48;5.20;;;2.70;;
65871;SDS011;52653;50.080;21.992;2022-09-12T03:36:40;5.20;;;2.40;;
65871;SDS011;52653;50.080;21.992;2022-09-12T03:39:32;6.00;;;2.50;;
65871;SDS011;52653;50.080;21.992;2022-09-12T03:42:25;7.20;;;3.10;;
65871;SDS011;52653;50.080;21.992;2022-09-12T03:45:17;5.80;;;2.90;;
65871;SDS011;52653;50.080;21.992;2022-09-12T03:48:09;6.20;;;2.80;;
65871;SDS011;52653;50.080;21.992;2022-09-12T03:51:02;6.00;;;2.80;;
65871;SDS011;52653;50.080;21.992;2022-09-12T03:53:56;7.10;;;3.10;;
65871;SDS011;52653;50.080;21.992;2022-09-12T03:56:48;6.50;;;3.20;;
65871;SDS011;52653;50.080;21.992;2022-09-12T03:59:41;7.00;;;3.50;;
65871;SDS011;52653;50.080;21.992;2022-09-12T04:02:13;7.50;;;3.60;;
65871;SDS011;52653;50.080;21.992;2022-09-12T04:05:06;8.50;;;3.40;;
65871;SDS011;52653;50.080;21.992;2022-09-12T04:07:58;7.50;;;2.90;;
65871;SDS011;52653;50.080;21.992;2022-09-12T04:10:51;5.50;;;2.60;;
65871;SDS011;52653;50.080;21.992;2022-09-12T04:13:44;5.50;;;3.10;;
65871;SDS011;52653;50.080;21.992;2022-09-12T04:16:37;5.40;;;2.80;;
65871;SDS011;52653;50.080;21.992;2022-09-12T04:19:29;6.30;;;3.60;;
65871;SDS011;52653;50.080;21.992;2022-09-12T04:22:22;5.90;;;3.20;;
65871;SDS011;52653;50.080;21.992;2022-09-12T04:25:14;5.60;;;3.40;;
65871;SDS011;52653;50.080;21.992;2022-09-12T04:28:07;7.10;;;3.50;;
65871;SDS011;52653;50.080;21.992;2022-09-12T04:31:01;5.80;;;3.60;;
65871;SDS011;52653;50.080;21.992;2022-09-12T04:33:55;7.40;;;3.70;;
65871;SDS011;52653;50.080;21.992;2022-09-12T04:36:49;6.70;;;3.40;;
65871;SDS011;52653;50.080;21.992;2022-09-12T04:39:41;8.10;;;3.20;;
65871;SDS011;52653;50.080;21.992;2022-09-12T04:42:34;5.40;;;3.20;;
65871;SDS011;52653;50.080;21.992;2022-09-12T04:45:26;7.40;;;3.20;;
65871;SDS011;52653;50.080;21.992;2022-09-12T04:48:17;5.70;;;3.50;;
65871;SDS011;52653;50.080;21.992;2022-09-12T04:51:11;7.30;;;3.50;;
65871;SDS011;52653;50.080;21.992;2022-09-12T04:53:56;6.60;;;3.20;;
65871;SDS011;52653;50.080;21.992;2022-09-12T04:56:50;6.20;;;3.70;;
65871;SDS011;52653;50.080;21.992;2022-09-12T04:59:43;7.70;;;3.80;;
65871;SDS011;52653;50.080;21.992;2022-09-12T05:02:36;6.90;;;3.60;;
65871;SDS011;52653;50.080;21.992;2022-09-12T05:05:28;6.90;;;3.40;;
65871;SDS011;52653;50.080;21.992;2022-09-12T05:08:11;6.90;;;3.40;;
65871;SDS011;52653;50.080;21.992;2022-09-12T05:11:04;6.80;;;3.50;;
65871;SDS011;52653;50.080;21.992;2022-09-12T05:13:58;5.80;;;3.60;;
65871;SDS011;52653;50.080;21.992;2022-09-12T05:16:50;7.40;;;3.70;;
65871;SDS011;52653;50.080;21.992;2022-09-12T05:19:44;6.10;;;3.80;;
65871;SDS011;52653;50.080;21.992;2022-09-12T05:22:38;6.60;;;3.60;;
65871;SDS011;52653;50.080;21.992;2022-09-12T05:25:30;7.20;;;4.00;;
65871;SDS011;52653;50.080;21.992;2022-09-12T05:28:23;7.20;;;3.70;;
65871;SDS011;52653;50.080;21.992;2022-09-12T05:31:19;7.80;;;3.40;;
65871;SDS011;52653;50.080;21.992;2022-09-12T05:34:12;6.40;;;3.60;;
65871;SDS011;52653;50.080;21.992;2022-09-12T05:37:04;6.60;;;3.90;;
65871;SDS011;52653;50.080;21.992;2022-09-12T05:39:56;5.80;;;3.20;;
65871;SDS011;52653;50.080;21.992;2022-09-12T05:42:49;5.70;;;3.30;;
65871;SDS011;52653;50.080;21.992;2022-09-12T05:45:25;5.80;;;3.40;;
65871;SDS011;52653;50.080;21.992;2022-09-12T05:48:19;6.80;;;3.60;;
65871;SDS011;52653;50.080;21.992;2022-09-12T05:53:46;6.80;;;3.70;;
65871;SDS011;52653;50.080;21.992;2022-09-12T05:56:33;7.60;;;3.80;;
65871;SDS011;52653;50.080;21.992;2022-09-12T05:59:27;7.80;;;4.10;;
65871;SDS011;52653;50.080;21.992;2022-09-12T06:02:19;7.90;;;4.60;;
65871;SDS011;52653;50.080;21.992;2022-09-12T06:05:11;6.60;;;4.10;;
65871;SDS011;52653;50.080;21.992;2022-09-12T06:08:03;7.30;;;3.40;;
65871;SDS011;52653;50.080;21.992;2022-09-12T06:10:58;7.00;;;3.70;;
65871;SDS011;52653;50.080;21.992;2022-09-12T06:13:51;8.40;;;3.70;;
65871;SDS011;52653;50.080;21.992;2022-09-12T06:16:27;8.10;;;3.50;;
65871;SDS011;52653;50.080;21.992;2022-09-12T06:19:21;6.20;;;3.50;;
65871;SDS011;52653;50.080;21.992;2022-09-12T06:22:15;7.30;;;3.90;;
65871;SDS011;52653;50.080;21.992;2022-09-12T06:25:08;6.10;;;3.80;;
65871;SDS011;52653;50.080;21.992;2022-09-12T06:28:00;5.60;;;3.90;;
65871;SDS011;52653;50.080;21.992;2022-09-12T06:30:53;7.60;;;3.70;;
65871;SDS011;52653;50.080;21.992;2022-09-12T06:33:42;7.80;;;3.40;;
65871;SDS011;52653;50.080;21.992;2022-09-12T06:36:37;7.90;;;3.50;;
65871;SDS011;52653;50.080;21.992;2022-09-12T06:39:30;8.80;;;3.50;;
65871;SDS011;52653;50.080;21.992;2022-09-12T06:42:14;7.10;;;3.80;;
65871;SDS011;52653;50.080;21.992;2022-09-12T06:45:08;5.80;;;3.80;;
65871;SDS011;52653;50.080;21.992;2022-09-12T06:48:02;8.10;;;3.90;;
65871;SDS011;52653;50.080;21.992;2022-09-12T06:50:55;9.60;;;4.10;;
65871;SDS011;52653;50.080;21.992;2022-09-12T06:53:48;7.60;;;4.20;;
65871;SDS011;52653;50.080;21.992;2022-09-12T06:56:40;8.30;;;3.90;;
65871;SDS011;52653;50.080;21.992;2022-09-12T06:59:33;6.40;;;3.70;;
65871;SDS011;52653;50.080;21.992;2022-09-12T07:02:25;7.90;;;3.70;;
65871;SDS011;52653;50.080;21.992;2022-09-12T07:05:18;8.20;;;4.00;;
65871;SDS011;52653;50.080;21.992;2022-09-12T07:08:10;7.50;;;3.50;;
65871;SDS011;52653;50.080;21.992;2022-09-12T07:11:08;8.80;;;3.90;;
65871;SDS011;52653;50.080;21.992;2022-09-12T07:14:02;7.20;;;4.00;;
65871;SDS011;52653;50.080;21.992;2022-09-12T07:16:55;6.80;;;3.80;;
65871;SDS011;52653;50.080;21.992;2022-09-12T07:19:48;9.20;;;4.00;;
65871;SDS011;52653;50.080;21.992;2022-09-12T07:22:40;9.30;;;4.50;;
65871;SDS011;52653;50.080;21.992;2022-09-12T07:25:32;6.90;;;3.70;;
65871;SDS011;52653;50.080;21.992;2022-09-12T07:28:25;5.10;;;3.00;;
65871;SDS011;52653;50.080;21.992;2022-09-12T07:31:18;5.70;;;3.30;;
65871;SDS011;52653;50.080;21.992;2022-09-12T07:34:11;8.10;;;3.90;;
65871;SDS011;52653;50.080;21.992;2022-09-12T07:37:05;9.30;;;4.60;;
65871;SDS011;52653;50.080;21.992;2022-09-12T07:39:57;6.80;;;4.00;;
65871;SDS011;52653;50.080;21.992;2022-09-12T07:42:50;7.50;;;4.10;;
65871;SDS011;52653;50.080;21.992;2022-09-12T07:45:43;6.60;;;4.00;;
65871;SDS011;52653;50.080;21.992;2022-09-12T07:48:36;7.60;;;3.70;;
65871;SDS011;52653;50.080;21.992;2022-09-12T07:51:29;7.20;;;3.80;;
65871;SDS011;52653;50.080;21.992;2022-09-12T07:54:15;7.90;;;4.10;;
65871;SDS011;52653;50.080;21.992;2022-09-12T07:57:08;7.60;;;4.60;;
65871;SDS011;52653;50.080;21.992;2022-09-12T08:00:00;8.10;;;4.70;;
65871;SDS011;52653;50.080;21.992;2022-09-12T08:02:53;6.70;;;4.30;;
65871;SDS011;52653;50.080;21.992;2022-09-12T08:05:46;8.00;;;3.90;;
65871;SDS011;52653;50.080;21.992;2022-09-12T08:08:27;7.30;;;4.10;;
65871;SDS011;52653;50.080;21.992;2022-09-12T08:11:20;6.70;;;3.90;;
65871;SDS011;52653;50.080;21.992;2022-09-12T08:14:13;8.60;;;4.70;;
65871;SDS011;52653;50.080;21.992;2022-09-12T08:17:06;9.40;;;5.20;;
65871;SDS011;52653;50.080;21.992;2022-09-12T08:19:38;8.00;;;4.70;;
65871;SDS011;52653;50.080;21.992;2022-09-12T08:22:20;9.80;;;5.30;;
65871;SDS011;52653;50.080;21.992;2022-09-12T08:24:57;8.40;;;4.80;;
65871;SDS011;52653;50.080;21.992;2022-09-12T08:27:49;8.10;;;4.60;;
65871;SDS011;52653;50.080;21.992;2022-09-12T08:30:41;7.00;;;4.20;;
65871;SDS011;52653;50.080;21.992;2022-09-12T08:33:34;8.40;;;4.60;;
65871;SDS011;52653;50.080;21.992;2022-09-12T08:36:26;12.80;;;7.20;;
65871;SDS011;52653;50.080;21.992;2022-09-12T08:39:18;8.80;;;5.00;;
65871;SDS011;52653;50.080;21.992;2022-09-12T08:42:13;8.00;;;5.20;;
65871;SDS011;52653;50.080;21.992;2022-09-12T08:45:09;7.90;;;4.50;;
65871;SDS011;52653;50.080;21.992;2022-09-12T08:48:10;7.20;;;5.00;;
65871;SDS011;52653;50.080;21.992;2022-09-12T08:50:56;9.10;;;3.80;;
65871;SDS011;52653;50.080;21.992;2022-09-12T08:53:49;7.90;;;4.40;;
65871;SDS011;52653;50.080;21.992;2022-09-12T08:56:45;8.20;;;4.40;;
65871;SDS011;52653;50.080;21.992;2022-09-12T08:59:38;6.30;;;4.40;;
65871;SDS011;52653;50.080;21.992;2022-09-12T09:06:04;6.90;;;5.20;;
65871;SDS011;52653;50.080;21.992;2022-09-12T09:09:05;7.20;;;4.40;;
65871;SDS011;52653;50.080;21.992;2022-09-12T09:12:08;7.30;;;3.60;;
65871;SDS011;52653;50.080;21.992;2022-09-12T09:15:14;9.50;;;4.10;;
65871;SDS011;52653;50.080;21.992;2022-09-12T09:18:16;7.90;;;4.10;;
65871;SDS011;52653;50.080;21.992;2022-09-12T09:21:13;6.10;;;4.40;;
65871;SDS011;52653;50.080;21.992;2022-09-12T09:24:14;6.40;;;3.90;;
65871;SDS011;52653;50.080;21.992;2022-09-12T09:27:11;6.50;;;4.10;;
65871;SDS011;52653;50.080;21.992;2022-09-12T09:30:19;6.40;;;3.60;;
65871;SDS011;52653;50.080;21.992;2022-09-12T09:33:14;6.90;;;3.70;;
65871;SDS011;52653;50.080;21.992;2022-09-12T09:36:06;5.70;;;3.20;;
65871;SDS011;52653;50.080;21.992;2022-09-12T09:39:11;6.20;;;3.60;;
65871;SDS011;52653;50.080;21.992;2022-09-12T09:42:11;6.70;;;3.70;;
65871;SDS011;52653;50.080;21.992;2022-09-12T09:45:14;6.60;;;3.80;;
65871;SDS011;52653;50.080;21.992;2022-09-12T09:48:12;5.80;;;3.90;;
65871;SDS011;52653;50.080;21.992;2022-09-12T09:51:08;7.50;;;4.20;;
65871;SDS011;52653;50.080;21.992;2022-09-12T09:53:55;6.70;;;4.40;;
65871;SDS011;52653;50.080;21.992;2022-09-12T09:56:50;7.10;;;3.90;;
65871;SDS011;52653;50.080;21.992;2022-09-12T09:59:42;6.00;;;3.60;;
65871;SDS011;52653;50.080;21.992;2022-09-12T10:02:34;6.10;;;3.30;;
65871;SDS011;52653;50.080;21.992;2022-09-12T10:05:19;7.60;;;3.50;;
65871;SDS011;52653;50.080;21.992;2022-09-12T10:08:12;5.60;;;4.00;;
65871;SDS011;52653;50.080;21.992;2022-09-12T10:11:17;8.30;;;4.00;;
65871;SDS011;52653;50.080;21.992;2022-09-12T10:14:25;6.20;;;3.90;;
65871;SDS011;52653;50.080;21.992;2022-09-12T10:17:25;6.60;;;3.90;;
65871;SDS011;52653;50.080;21.992;2022-09-12T10:20:30;7.00;;;3.70;;
65871;SDS011;52653;50.080;21.992;2022-09-12T10:23:22;7.40;;;3.70;;
65871;SDS011;52653;50.080;21.992;2022-09-12T10:26:15;8.20;;;3.90;;
65871;SDS011;52653;50.080;21.992;2022-09-12T10:29:11;6.80;;;3.50;;
65871;SDS011;52653;50.080;21.992;2022-09-12T10:32:07;5.30;;;3.40;;
65871;SDS011;52653;50.080;21.992;2022-09-12T10:35:01;6.50;;;4.10;;
65871;SDS011;52653;50.080;21.992;2022-09-12T10:37:52;8.50;;;4.10;;
65871;SDS011;52653;50.080;21.992;2022-09-12T10:40:53;6.80;;;4.20;;
65871;SDS011;52653;50.080;21.992;2022-09-12T10:43:48;7.60;;;4.30;;
65871;SDS011;52653;50.080;21.992;2022-09-12T10:46:34;7.00;;;3.70;;
65871;SDS011;52653;50.080;21.992;2022-09-12T10:49:27;5.80;;;3.90;;
65871;SDS011;52653;50.080;21.992;2022-09-12T10:52:19;5.70;;;3.50;;
65871;SDS011;52653;50.080;21.992;2022-09-12T10:54:55;6.00;;;3.50;;
65871;SDS011;52653;50.080;21.992;2022-09-12T10:57:39;6.50;;;3.40;;
65871;SDS011;52653;50.080;21.992;2022-09-12T11:00:45;7.30;;;3.90;;
65871;SDS011;52653;50.080;21.992;2022-09-12T11:03:37;8.40;;;4.30;;
65871;SDS011;52653;50.080;21.992;2022-09-12T11:06:42;6.60;;;4.00;;
65871;SDS011;52653;50.080;21.992;2022-09-12T11:09:44;6.20;;;3.80;;
65871;SDS011;52653;50.080;21.992;2022-09-12T11:12:35;6.30;;;4.20;;
65871;SDS011;52653;50.080;21.992;2022-09-12T11:15:30;5.70;;;3.90;;
65871;SDS011;52653;50.080;21.992;2022-09-12T11:18:35;5.90;;;3.50;;
65871;SDS011;52653;50.080;21.992;2022-09-12T11:21:37;7.50;;;3.80;;
65871;SDS011;52653;50.080;21.992;2022-09-12T11:24:45;6.60;;;3.50;;
65871;SDS011;52653;50.080;21.992;2022-09-12T11:27:46;6.60;;;3.90;;
65871;SDS011;52653;50.080;21.992;2022-09-12T11:30:28;6.70;;;3.60;;
65871;SDS011;52653;50.080;21.992;2022-09-12T11:33:31;8.30;;;3.80;;
65871;SDS011;52653;50.080;21.992;2022-09-12T11:36:29;6.70;;;4.30;;
65871;SDS011;52653;50.080;21.992;2022-09-12T11:39:28;6.10;;;3.70;;
65871;SDS011;52653;50.080;21.992;2022-09-12T11:42:28;5.80;;;3.80;;
65871;SDS011;52653;50.080;21.992;2022-09-12T11:45:25;5.50;;;3.50;;
65871;SDS011;52653;50.080;21.992;2022-09-12T11:48:16;4.90;;;3.30;;
65871;SDS011;52653;50.080;21.992;2022-09-12T11:51:17;5.30;;;3.00;;
65871;SDS011;52653;50.080;21.992;2022-09-12T11:54:16;4.90;;;3.10;;
65871;SDS011;52653;50.080;21.992;2022-09-12T11:57:16;5.10;;;2.70;;
65871;SDS011;52653;50.080;21.992;2022-09-12T12:00:15;5.40;;;3.10;;
65871;SDS011;52653;50.080;21.992;2022-09-12T12:03:13;6.00;;;2.90;;
65871;SDS011;52653;50.080;21.992;2022-09-12T12:06:02;4.40;;;2.90;;
65871;SDS011;52653;50.080;21.992;2022-09-12T12:08:56;4.70;;;2.50;;
65871;SDS011;52653;50.080;21.992;2022-09-12T12:11:57;4.00;;;3.00;;
65871;SDS011;52653;50.080;21.992;2022-09-12T12:14:54;4.70;;;3.10;;
65871;SDS011;52653;50.080;21.992;2022-09-12T12:18:00;4.70;;;2.80;;
65871;SDS011;52653;50.080;21.992;2022-09-12T12:20:55;6.10;;;2.90;;
65871;SDS011;52653;50.080;21.992;2022-09-12T12:24:13;6.10;;;2.80;;
65871;SDS011;52653;50.080;21.992;2022-09-12T12:26:57;4.90;;;3.00;;
65871;SDS011;52653;50.080;21.992;2022-09-12T12:29:41;4.40;;;2.80;;
65871;SDS011;52653;50.080;21.992;2022-09-12T12:32:34;4.90;;;3.10;;
65871;SDS011;52653;50.080;21.992;2022-09-12T12:35:38;6.60;;;3.70;;
65871;SDS011;52653;50.080;21.992;2022-09-12T12:38:33;8.60;;;3.40;;
65871;SDS011;52653;50.080;21.992;2022-09-12T12:41:44;6.20;;;3.80;;
65871;SDS011;52653;50.080;21.992;2022-09-12T12:44:49;6.30;;;4.10;;
65871;SDS011;52653;50.080;21.992;2022-09-12T12:47:38;7.50;;;3.90;;
65871;SDS011;52653;50.080;21.992;2022-09-12T12:50:21;5.90;;;4.00;;
65871;SDS011;52653;50.080;21.992;2022-09-12T12:53:17;5.90;;;3.70;;
65871;SDS011;52653;50.080;21.992;2022-09-12T12:56:31;6.30;;;4.10;;
65871;SDS011;52653;50.080;21.992;2022-09-12T12:59:19;6.90;;;4.10;;
65871;SDS011;52653;50.080;21.992;2022-09-12T13:02:14;6.00;;;3.80;;
65871;SDS011;52653;50.080;21.992;2022-09-12T13:05:17;7.00;;;4.20;;
65871;SDS011;52653;50.080;21.992;2022-09-12T13:08:23;6.20;;;4.20;;
65871;SDS011;52653;50.080;21.992;2022-09-12T13:11:27;6.10;;;3.90;;
65871;SDS011;52653;50.080;21.992;2022-09-12T13:17:31;6.80;;;4.00;;
65871;SDS011;52653;50.080;21.992;2022-09-12T13:20:27;6.60;;;4.20;;
65871;SDS011;52653;50.080;21.992;2022-09-12T13:23:23;6.20;;;4.70;;
65871;SDS011;52653;50.080;21.992;2022-09-12T13:25:58;8.40;;;5.10;;
65871;SDS011;52653;50.080;21.992;2022-09-12T13:28:50;8.10;;;5.00;;
65871;SDS011;52653;50.080;21.992;2022-09-12T13:32:00;8.90;;;4.90;;
65871;SDS011;52653;50.080;21.992;2022-09-12T13:34:57;8.30;;;5.20;;
65871;SDS011;52653;50.080;21.992;2022-09-12T13:37:57;6.90;;;4.90;;
65871;SDS011;52653;50.080;21.992;2022-09-12T13:40:53;7.20;;;5.00;;
65871;SDS011;52653;50.080;21.992;2022-09-12T13:43:52;6.50;;;4.50;;
65871;SDS011;52653;50.080;21.992;2022-09-12T13:46:44;8.20;;;4.60;;
65871;SDS011;52653;50.080;21.992;2022-09-12T13:49:38;7.10;;;4.60;;
65871;SDS011;52653;50.080;21.992;2022-09-12T13:52:32;7.80;;;4.40;;
65871;SDS011;52653;50.080;21.992;2022-09-12T13:55:30;6.80;;;4.40;;
65871;SDS011;52653;50.080;21.992;2022-09-12T13:58:16;9.00;;;4.10;;
65871;SDS011;52653;50.080;21.992;2022-09-12T14:01:13;7.00;;;3.70;;
65871;SDS011;52653;50.080;21.992;2022-09-12T14:03:56;7.10;;;4.20;;
65871;SDS011;52653;50.080;21.992;2022-09-12T14:06:56;7.70;;;4.40;;
65871;SDS011;52653;50.080;21.992;2022-09-12T14:09:53;8.70;;;4.40;;
65871;SDS011;52653;50.080;21.992;2022-09-12T14:12:47;7.00;;;3.60;;
65871;SDS011;52653;50.080;21.992;2022-09-12T14:15:42;6.50;;;4.00;;
65871;SDS011;52653;50.080;21.992;2022-09-12T14:18:37;6.60;;;4.20;;
65871;SDS011;52653;50.080;21.992;2022-09-12T14:21:34;9.30;;;4.90;;
65871;SDS011;52653;50.080;21.992;2022-09-12T14:24:27;6.80;;;4.60;;
65871;SDS011;52653;50.080;21.992;2022-09-12T14:27:03;7.50;;;3.80;;
65871;SDS011;52653;50.080;21.992;2022-09-12T14:29:49;6.30;;;3.70;;
65871;SDS011;52653;50.080;21.992;2022-09-12T14:32:42;5.80;;;3.50;;
65871;SDS011;52653;50.080;21.992;2022-09-12T14:35:51;5.80;;;3.30;;
65871;SDS011;52653;50.080;21.992;2022-09-12T14:39:00;6.10;;;3.20;;
65871;SDS011;52653;50.080;21.992;2022-09-12T14:42:00;6.50;;;3.30;;
65871;SDS011;52653;50.080;21.992;2022-09-12T14:44:38;5.60;;;3.00;;
65871;SDS011;52653;50.080;21.992;2022-09-12T14:47:19;5.60;;;3.00;;
65871;SDS011;52653;50.080;21.992;2022-09-12T14:49:56;7.40;;;3.70;;
65871;SDS011;52653;50.080;21.992;2022-09-12T14:52:41;6.40;;;3.40;;
65871;SDS011;52653;50.080;21.992;2022-09-12T14:55:34;6.00;;;3.40;;
65871;SDS011;52653;50.080;21.992;2022-09-12T14:58:34;6.80;;;3.70;;
65871;SDS011;52653;50.080;21.992;2022-09-12T15:01:26;5.60;;;3.80;;
65871;SDS011;52653;50.080;21.992;2022-09-12T15:07:31;9.80;;;4.90;;
65871;SDS011;52653;50.080;21.992;2022-09-12T15:10:25;6.80;;;4.60;;
65871;SDS011;52653;50.080;21.992;2022-09-12T15:13:14;8.20;;;4.70;;
65871;SDS011;52653;50.080;21.992;2022-09-12T15:16:08;10.80;;;4.80;;
65871;SDS011;52653;50.080;21.992;2022-09-12T15:19:00;6.80;;;4.50;;
65871;SDS011;52653;50.080;21.992;2022-09-12T15:21:53;7.80;;;4.40;;
65871;SDS011;52653;50.080;21.992;2022-09-12T15:24:45;7.60;;;4.50;;
65871;SDS011;52653;50.080;21.992;2022-09-12T15:27:37;9.30;;;4.80;;
65871;SDS011;52653;50.080;21.992;2022-09-12T15:30:30;10.60;;;6.00;;
65871;SDS011;52653;50.080;21.992;2022-09-12T15:33:23;7.30;;;4.50;;
65871;SDS011;52653;50.080;21.992;2022-09-12T15:36:16;10.40;;;4.30;;
65871;SDS011;52653;50.080;21.992;2022-09-12T15:39:09;6.80;;;4.70;;
65871;SDS011;52653;50.080;21.992;2022-09-12T15:42:02;6.40;;;4.20;;
65871;SDS011;52653;50.080;21.992;2022-09-12T15:44:55;7.10;;;4.80;;
65871;SDS011;52653;50.080;21.992;2022-09-12T15:47:51;6.10;;;4.20;;
65871;SDS011;52653;50.080;21.992;2022-09-12T15:50:43;7.60;;;4.20;;
65871;SDS011;52653;50.080;21.992;2022-09-12T15:53:35;7.10;;;4.20;;
65871;SDS011;52653;50.080;21.992;2022-09-12T15:56:28;7.60;;;4.60;;
65871;SDS011;52653;50.080;21.992;2022-09-12T15:59:20;8.00;;;4.70;;
65871;SDS011;52653;50.080;21.992;2022-09-12T16:02:13;7.80;;;5.10;;
65871;SDS011;52653;50.080;21.992;2022-09-12T16:05:10;8.60;;;5.30;;
65871;SDS011;52653;50.080;21.992;2022-09-12T16:08:05;8.00;;;5.20;;
65871;SDS011;52653;50.080;21.992;2022-09-12T16:10:59;8.30;;;5.30;;
65871;SDS011;52653;50.080;21.992;2022-09-12T16:13:53;9.40;;;5.20;;
65871;SDS011;52653;50.080;21.992;2022-09-12T16:16:51;8.60;;;4.70;;
65871;SDS011;52653;50.080;21.992;2022-09-12T16:19:45;8.20;;;5.50;;
65871;SDS011;52653;50.080;21.992;2022-09-12T16:22:37;11.20;;;6.30;;
65871;SDS011;52653;50.080;21.992;2022-09-12T16:25:29;10.30;;;6.60;;
65871;SDS011;52653;50.080;21.992;2022-09-12T16:28:22;9.70;;;6.30;;
65871;SDS011;52653;50.080;21.992;2022-09-12T16:31:14;9.00;;;5.70;;
65871;SDS011;52653;50.080;21.992;2022-09-12T16:34:06;8.80;;;5.80;;
65871;SDS011;52653;50.080;21.992;2022-09-12T16:36:59;8.70;;;5.60;;
65871;SDS011;52653;50.080;21.992;2022-09-12T16:39:52;12.70;;;6.50;;
65871;SDS011;52653;50.080;21.992;2022-09-12T16:42:43;10.30;;;6.50;;
65871;SDS011;52653;50.080;21.992;2022-09-12T16:45:24;11.70;;;6.90;;
65871;SDS011;52653;50.080;21.992;2022-09-12T16:48:16;9.80;;;7.30;;
65871;SDS011;52653;50.080;21.992;2022-09-12T16:50:58;11.30;;;7.90;;
65871;SDS011;52653;50.080;21.992;2022-09-12T16:53:52;12.20;;;9.00;;
65871;SDS011;52653;50.080;21.992;2022-09-12T16:56:25;12.00;;;8.70;;
65871;SDS011;52653;50.080;21.992;2022-09-12T16:59:17;12.10;;;8.20;;
65871;SDS011;52653;50.080;21.992;2022-09-12T17:04:56;10.50;;;7.60;;
65871;SDS011;52653;50.080;21.992;2022-09-12T17:07:48;13.40;;;8.10;;
65871;SDS011;52653;50.080;21.992;2022-09-12T17:10:41;17.00;;;10.10;;
65871;SDS011;52653;50.080;21.992;2022-09-12T17:13:37;23.30;;;12.10;;
65871;SDS011;52653;50.080;21.992;2022-09-12T17:16:49;29.10;;;17.60;;
65871;SDS011;52653;50.080;21.992;2022-09-12T17:19:41;17.90;;;12.20;;
65871;SDS011;52653;50.080;21.992;2022-09-12T17:22:33;14.30;;;9.30;;
65871;SDS011;52653;50.080;21.992;2022-09-12T17:25:15;13.80;;;9.90;;
65871;SDS011;52653;50.080;21.992;2022-09-12T17:27:56;14.60;;;9.60;;
65871;SDS011;52653;50.080;21.992;2022-09-12T17:30:38;20.40;;;9.90;;
65871;SDS011;52653;50.080;21.992;2022-09-12T17:33:14;14.10;;;9.00;;
65871;SDS011;52653;50.080;21.992;2022-09-12T17:36:00;11.70;;;8.40;;